Time;durP1;ratioP1;P1;durP2;ratioP2;P2;SDS_P1;SDS_P2;PMS_P1;PMS_P2;Temp;Humidity;BMP_temperature;BMP_pressure;BME280_temperature;BME280_humidity;BME280_pressure;Samples;Min_cycle;Max_cycle;Signal;HPM_P1;HPM_P2
2022/08/06 00:01:52;;;;;;;2.72;2.30;;;23.80;58.30;;;;;;5099006;27;20071;-51
2022/08/06 00:04:17;;;;;;;2.88;1.65;;;23.40;58.80;;;;;;5101859;27;20073;-52
2022/08/06 00:06:43;;;;;;;2.70;1.50;;;23.60;59.30;;;;;;5101513;27;20027;-51
2022/08/06 00:09:08;;;;;;;1.70;1.48;;;24.10;58.20;;;;;;5100089;27;20023;-51
2022/08/06 00:11:34;;;;;;;3.67;1.23;;;24.40;57.80;;;;;;5100430;27;20038;-54
2022/08/06 00:13:59;;;;;;;1.88;1.23;;;24.60;57.10;;;;;;5098812;27;20043;-54
2022/08/06 00:16:25;;;;;;;2.55;1.50;;;24.70;57.10;;;;;;5100531;27;20640;-53
2022/08/06 00:18:50;;;;;;;3.15;1.27;;;24.70;56.90;;;;;;5099205;27;20114;-53
2022/08/06 00:21:16;;;;;;;2.90;1.40;;;24.80;57.30;;;;;;5100695;27;20081;-50
2022/08/06 00:23:41;;;;;;;2.28;1.58;;;24.90;57.20;;;;;;5089692;28;20097;-52
2022/08/06 00:26:07;;;;;;;1.55;1.25;;;24.80;57.20;;;;;;5079954;28;20396;-51
2022/08/06 00:28:32;;;;;;;4.90;1.65;;;24.90;57.30;;;;;;5079457;28;20039;-51
2022/08/06 00:30:59;;;;;;;1.95;1.13;;;24.90;57.30;;;;;;5080168;28;20020;-52
2022/08/06 00:33:25;;;;;;;3.80;1.35;;;24.90;57.30;;;;;;5079447;28;20504;-49
2022/08/06 00:35:50;;;;;;;3.08;1.73;;;25.00;57.30;;;;;;5080299;28;20034;-52
2022/08/06 00:38:16;;;;;;;3.78;1.70;;;24.90;57.20;;;;;;5079866;28;20059;-50
2022/08/06 00:40:41;;;;;;;2.50;1.70;;;25.00;57.00;;;;;;5079155;28;20059;-52
2022/08/06 00:43:07;;;;;;;1.60;1.35;;;25.00;57.30;;;;;;5080435;28;20028;-49
2022/08/06 00:45:33;;;;;;;2.60;1.70;;;25.00;57.30;;;;;;5078025;28;20106;-50
2022/08/06 00:47:59;;;;;;;2.10;1.40;;;25.00;57.20;;;;;;5078282;28;20074;-53
2022/08/06 00:50:25;;;;;;;1.70;1.60;;;25.10;57.20;;;;;;5077104;28;20028;-50
2022/08/06 00:52:50;;;;;;;3.65;1.30;;;25.00;57.10;;;;;;5081320;27;20066;-53
2022/08/06 00:55:16;;;;;;;3.95;1.40;;;25.10;57.10;;;;;;5100580;27;20633;-51
2022/08/06 00:57:41;;;;;;;1.67;1.58;;;25.00;57.10;;;;;;5098480;27;20039;-55
2022/08/06 01:00:07;;;;;;;1.67;1.30;;;25.10;57.10;;;;;;5099027;27;20019;-49
2022/08/06 01:02:33;;;;;;;1.90;1.35;;;25.10;57.20;;;;;;5099842;27;20031;-50
2022/08/06 01:04:59;;;;;;;1.67;1.40;;;25.10;57.10;;;;;;5100459;27;20024;-52
2022/08/06 01:07:24;;;;;;;2.55;1.75;;;25.10;56.80;;;;;;5099853;27;20047;-51
2022/08/06 01:09:50;;;;;;;2.70;2.10;;;25.00;56.80;;;;;;5098331;27;20317;-51
2022/08/06 01:12:16;;;;;;;2.50;1.55;;;25.00;56.50;;;;;;5099929;27;20027;-51
2022/08/06 01:14:42;;;;;;;2.85;1.77;;;25.00;56.90;;;;;;5099479;27;20039;-51
2022/08/06 01:17:16;;;;;;;3.47;1.90;;;25.00;57.10;;;;;;5099611;27;20613;-51
2022/08/06 01:20:01;;;;;;;1.90;1.65;;;24.80;56.80;;;;;;5096779;27;20092;-52
2022/08/06 01:22:35;;;;;;;1.50;1.40;;;24.70;56.90;;;;;;5098032;27;20558;-52
2022/08/06 01:25:13;;;;;;;3.65;2.03;;;24.70;56.30;;;;;;5099292;27;20062;-51
2022/08/06 01:28:00;;;;;;;3.33;2.53;;;24.40;57.70;;;;;;5097553;27;20035;-52
2022/08/06 01:30:29;;;;;;;4.40;3.25;;;24.10;58.20;;;;;;5097400;27;20144;-53
2022/08/06 01:33:02;;;;;;;4.40;3.20;;;23.90;58.50;;;;;;5099967;27;20129;-51
2022/08/06 01:35:29;;;;;;;5.28;4.25;;;23.80;59.00;;;;;;5097853;27;20594;-50
2022/08/06 01:38:16;;;;;;;4.97;3.97;;;23.60;59.00;;;;;;5097171;27;20463;-49
2022/08/06 01:40:42;;;;;;;3.50;2.90;;;23.40;57.80;;;;;;5082332;27;20032;-51
2022/08/06 01:43:09;;;;;;;5.35;4.85;;;23.00;60.10;;;;;;5097648;27;20103;-51
2022/08/06 01:45:35;;;;;;;5.53;5.03;;;22.70;60.40;;;;;;5097305;27;20032;-49
2022/08/06 01:48:04;;;;;;;3.20;2.90;;;22.70;59.60;;;;;;5097054;27;20068;-53
2022/08/06 01:50:32;;;;;;;5.13;2.95;;;23.00;60.70;;;;;;5096703;27;20031;-50
2022/08/06 01:52:58;;;;;;;3.40;2.08;;;22.90;59.40;;;;;;5096792;27;20062;-50
2022/08/06 01:55:24;;;;;;;3.28;2.95;;;22.80;60.10;;;;;;5097052;27;20035;-51
2022/08/06 01:57:55;;;;;;;3.47;2.72;;;22.90;59.00;;;;;;5097323;28;20034;-49
2022/08/06 02:00:20;;;;;;;4.03;2.75;;;22.90;58.10;;;;;;5078767;27;20572;-50
2022/08/06 02:02:46;;;;;;;4.15;1.75;;;22.50;60.10;;;;;;5080235;28;20055;-52
2022/08/06 02:05:13;;;;;;;3.33;2.30;;;22.80;59.70;;;;;;5096466;27;20106;-52
2022/08/06 02:07:40;;;;;;;2.00;1.80;;;22.70;58.90;;;;;;5096474;27;20546;-52
2022/08/06 02:10:06;;;;;;;3.33;2.25;;;22.60;59.70;;;;;;5095762;27;20032;-51
2022/08/06 02:12:31;;;;;;;3.33;2.13;;;22.80;59.30;;;;;;5097931;27;20671;-50
2022/08/06 02:14:59;;;;;;;4.20;1.95;;;23.00;59.00;;;;;;5095391;27;20716;-51
2022/08/06 02:17:27;;;;;;;4.53;2.33;;;22.90;58.20;;;;;;5095869;27;20101;-51
2022/08/06 02:19:52;;;;;;;3.22;2.03;;;22.80;59.10;;;;;;5095023;27;20793;-49
2022/08/06 02:22:18;;;;;;;3.25;1.65;;;22.50;59.80;;;;;;5101114;27;20114;-51
2022/08/06 02:24:44;;;;;;;2.85;1.67;;;22.70;59.10;;;;;;5100056;27;20030;-50
2022/08/06 02:27:10;;;;;;;1.75;1.30;;;22.70;57.40;;;;;;5100374;27;20071;-51
2022/08/06 02:29:35;;;;;;;6.10;1.75;;;22.80;58.30;;;;;;5096317;27;20214;-50
2022/08/06 02:32:01;;;;;;;2.40;1.40;;;22.50;57.40;;;;;;5079198;28;20248;-49
2022/08/06 02:34:26;;;;;;;3.85;1.33;;;22.20;58.30;;;;;;5080732;28;20470;-49
2022/08/06 02:37:13;;;;;;;1.58;1.20;;;22.30;56.50;;;;;;5079396;28;20031;-53
2022/08/06 02:39:48;;;;;;;2.70;1.25;;;21.50;57.40;;;;;;5073102;28;20036;-49
2022/08/06 02:42:23;;;;;;;2.15;1.05;;;21.70;59.60;;;;;;5079377;28;20484;-51
2022/08/06 02:44:58;;;;;;;1.10;1.00;;;21.50;58.50;;;;;;5081998;28;20027;-49
2022/08/06 02:47:26;;;;;;;2.85;1.20;;;21.50;58.40;;;;;;5099487;27;20032;-49
2022/08/06 02:49:53;;;;;;;1.38;1.15;;;21.40;58.60;;;;;;5099663;27;20035;-51
2022/08/06 02:52:29;;;;;;;1.83;1.25;;;21.60;57.00;;;;;;5064166;27;1056403;-49
2022/08/06 02:55:02;;;;;;;1.48;0.93;;;21.60;56.30;;;;;;5100028;27;20397;-49
2022/08/06 02:57:30;;;;;;;1.48;0.80;;;21.80;57.20;;;;;;5101290;27;20024;-52
2022/08/06 02:59:59;;;;;;;1.42;1.23;;;22.10;58.30;;;;;;5100270;27;20044;-50
2022/08/06 03:02:25;;;;;;;1.52;0.80;;;22.00;57.30;;;;;;5083719;27;20115;-49
2022/08/06 03:04:50;;;;;;;2.53;0.77;;;22.50;57.90;;;;;;5100550;27;20770;-49
2022/08/06 03:07:16;;;;;;;1.10;0.90;;;22.80;56.40;;;;;;5100504;28;20059;-53
2022/08/06 03:09:44;;;;;;;1.83;0.93;;;23.00;56.30;;;;;;5082589;27;20567;-49
2022/08/06 03:12:10;;;;;;;2.20;0.88;;;23.20;56.00;;;;;;5100283;27;20023;-48
2022/08/06 03:14:35;;;;;;;1.35;1.00;;;22.80;55.30;;;;;;5101456;27;20035;-49
2022/08/06 03:17:01;;;;;;;8.52;1.30;;;22.50;56.80;;;;;;5100974;27;20629;-49
2022/08/06 03:19:27;;;;;;;4.43;1.10;;;22.40;55.50;;;;;;5100058;27;20038;-50
2022/08/06 03:21:53;;;;;;;1.08;0.70;;;22.40;57.40;;;;;;5100661;27;20028;-51
2022/08/06 03:24:18;;;;;;;1.63;0.93;;;22.40;57.40;;;;;;5101142;28;20042;-53
2022/08/06 03:26:44;;;;;;;1.13;0.95;;;22.90;56.70;;;;;;5100689;27;20026;-50
2022/08/06 03:29:09;;;;;;;3.30;0.90;;;23.10;56.10;;;;;;5102982;27;20076;-52
2022/08/06 03:31:35;;;;;;;2.95;1.25;;;22.90;55.00;;;;;;5093761;28;20024;-53
2022/08/06 03:34:00;;;;;;;1.70;1.23;;;22.40;57.30;;;;;;5080217;28;20393;-50
2022/08/06 03:36:26;;;;;;;3.95;1.10;;;22.00;56.00;;;;;;5081084;28;20021;-51
2022/08/06 03:39:02;;;;;;;2.25;1.20;;;22.20;56.50;;;;;;5079817;28;20158;-51
2022/08/06 03:41:29;;;;;;;1.58;1.00;;;22.50;57.40;;;;;;5081644;28;20032;-48
2022/08/06 03:43:54;;;;;;;2.13;1.20;;;22.80;56.10;;;;;;5080485;28;20108;-52
2022/08/06 03:46:25;;;;;;;1.25;1.10;;;22.90;56.10;;;;;;5081458;28;20077;-48
2022/08/06 03:48:51;;;;;;;1.55;0.80;;;22.70;56.10;;;;;;5079320;28;20032;-51
2022/08/06 03:51:20;;;;;;;1.45;0.90;;;22.50;56.70;;;;;;5079969;28;20147;-49
2022/08/06 03:53:46;;;;;;;1.55;1.00;;;22.50;56.60;;;;;;5081442;28;20084;-50
2022/08/06 03:56:15;;;;;;;1.10;0.77;;;22.80;56.40;;;;;;5079647;28;20037;-51
2022/08/06 03:58:40;;;;;;;1.20;0.80;;;22.90;55.40;;;;;;5078967;28;20141;-50
2022/08/06 04:01:09;;;;;;;1.95;1.15;;;22.40;56.80;;;;;;5079234;28;20024;-52
2022/08/06 04:03:35;;;;;;;0.80;0.70;;;22.60;55.10;;;;;;5078792;28;20032;-50
2022/08/06 04:06:00;;;;;;;2.95;0.70;;;22.70;55.80;;;;;;5072394;28;20573;-49
2022/08/06 04:08:26;;;;;;;1.05;0.90;;;22.70;55.00;;;;;;5077736;28;20024;-52
2022/08/06 04:10:51;;;;;;;0.93;0.60;;;22.50;54.90;;;;;;5078945;28;20024;-52
2022/08/06 04:13:19;;;;;;;1.27;0.73;;;22.70;55.30;;;;;;5099557;28;20027;-51
2022/08/06 04:15:45;;;;;;;2.42;0.80;;;22.90;55.00;;;;;;5099339;27;20497;-50
2022/08/06 04:18:15;;;;;;;1.95;0.80;;;22.80;55.20;;;;;;5099619;27;20102;-52
2022/08/06 04:20:43;;;;;;;0.45;0.45;;;23.00;55.40;;;;;;5099268;27;20036;-51
2022/08/06 04:23:09;;;;;;;2.88;0.93;;;22.80;53.30;;;;;;5099499;27;20024;-49
2022/08/06 04:25:38;;;;;;;2.60;0.90;;;22.50;55.10;;;;;;5099811;27;20571;-50
2022/08/06 04:28:04;;;;;;;1.83;0.77;;;22.70;55.10;;;;;;5100543;27;20622;-51
2022/08/06 04:30:30;;;;;;;1.58;0.73;;;22.70;55.00;;;;;;5099431;27;20035;-53
2022/08/06 04:32:55;;;;;;;1.00;0.60;;;22.50;53.70;;;;;;5099794;27;20107;-50
2022/08/06 04:35:21;;;;;;;1.30;0.60;;;22.70;55.10;;;;;;5101274;27;20441;-51
2022/08/06 04:37:46;;;;;;;0.57;0.40;;;22.90;53.80;;;;;;5082426;28;21361;-49
2022/08/06 04:40:12;;;;;;;1.83;0.60;;;23.00;54.40;;;;;;5098478;27;20043;-49
2022/08/06 04:42:38;;;;;;;3.40;0.93;;;23.00;52.60;;;;;;5101653;27;20042;-49
2022/08/06 04:45:04;;;;;;;2.42;0.50;;;22.80;54.60;;;;;;5097496;27;20028;-51
2022/08/06 04:47:30;;;;;;;1.27;0.60;;;22.90;54.90;;;;;;5075643;28;20034;-50
2022/08/06 04:49:56;;;;;;;2.03;0.52;;;22.60;55.00;;;;;;5078937;28;20032;-50
2022/08/06 04:52:22;;;;;;;1.77;0.50;;;22.20;53.70;;;;;;5088597;22;20043;-58
2022/08/06 04:54:48;;;;;;;2.78;0.63;;;21.20;55.70;;;;;;5052405;28;20528;-51
2022/08/06 04:57:13;;;;;;;1.05;0.68;;;21.60;57.30;;;;;;5061527;28;20045;-51
2022/08/06 04:59:39;;;;;;;1.67;0.60;;;22.00;55.80;;;;;;5061136;28;20124;-53
2022/08/06 05:02:04;;;;;;;1.85;0.57;;;21.90;54.70;;;;;;5064023;28;20038;-51
2022/08/06 05:04:30;;;;;;;1.40;0.45;;;22.10;53.90;;;;;;5081590;28;20020;-54
2022/08/06 05:07:00;;;;;;;1.88;0.60;;;21.70;55.30;;;;;;5046096;28;20020;-54
2022/08/06 05:09:26;;;;;;;2.05;0.77;;;22.20;53.60;;;;;;5027747;28;20456;-52
2022/08/06 05:11:56;;;;;;;2.47;0.73;;;22.00;53.90;;;;;;5062051;28;20090;-55
2022/08/06 05:14:36;;;;;;;1.25;0.50;;;21.90;52.40;;;;;;5023743;28;20025;-60
2022/08/06 05:17:02;;;;;;;1.80;0.73;;;22.00;53.40;;;;;;5039817;28;20415;-53
2022/08/06 05:19:34;;;;;;;3.10;0.80;;;22.30;53.90;;;;;;5063205;28;20035;-52
2022/08/06 05:22:00;;;;;;;1.80;0.50;;;21.90;54.90;;;;;;5047428;28;20026;-50
2022/08/06 05:24:25;;;;;;;1.33;0.40;;;21.90;53.00;;;;;;5044172;28;20111;-53
2022/08/06 05:26:51;;;;;;;1.85;0.80;;;21.80;55.50;;;;;;5027052;28;20365;-54
2022/08/06 05:29:20;;;;;;;2.33;0.63;;;22.10;54.60;;;;;;5078507;28;20081;-53
2022/08/06 05:31:45;;;;;;;1.83;0.70;;;21.50;55.10;;;;;;5062936;28;20050;-50
2022/08/06 05:34:11;;;;;;;2.13;0.93;;;22.10;53.90;;;;;;5047030;28;20397;-51
2022/08/06 05:36:37;;;;;;;2.25;0.60;;;21.40;54.20;;;;;;5061184;28;20485;-53
2022/08/06 05:39:03;;;;;;;0.75;0.40;;;21.40;55.10;;;;;;5040009;28;20040;-52
2022/08/06 05:41:29;;;;;;;1.27;0.70;;;21.30;53.90;;;;;;5081189;28;20492;-52
2022/08/06 05:43:54;;;;;;;1.42;0.50;;;21.10;55.90;;;;;;5068966;28;20166;-54
2022/08/06 05:46:21;;;;;;;1.15;0.40;;;21.30;55.80;;;;;;5061336;28;20025;-52
2022/08/06 05:48:54;;;;;;;2.25;0.52;;;21.90;54.10;;;;;;5071313;28;20035;-52
2022/08/06 05:51:27;;;;;;;1.00;0.50;;;21.40;54.50;;;;;;5046468;28;20416;-56
2022/08/06 05:53:56;;;;;;;1.60;0.60;;;21.30;55.80;;;;;;5018882;28;20603;-51
2022/08/06 05:56:25;;;;;;;1.35;0.50;;;21.50;54.00;;;;;;5027232;28;20138;-52
2022/08/06 05:58:54;;;;;;;1.58;0.60;;;21.60;55.20;;;;;;5036182;28;20036;-52
2022/08/06 06:01:20;;;;;;;3.75;0.65;;;21.60;55.40;;;;;;5082088;28;20043;-52
2022/08/06 06:03:45;;;;;;;1.35;1.00;;;21.60;54.90;;;;;;5055271;28;20477;-51
2022/08/06 06:06:11;;;;;;;3.10;0.60;;;21.10;55.30;;;;;;5026247;28;20028;-52
2022/08/06 06:08:36;;;;;;;1.02;0.32;;;21.50;55.50;;;;;;5031973;28;20067;-51
2022/08/06 06:11:02;;;;;;;0.95;0.30;;;21.90;53.70;;;;;;5046554;28;20028;-50
2022/08/06 06:13:28;;;;;;;4.18;0.52;;;21.70;55.00;;;;;;5057776;28;20029;-50
2022/08/06 06:16:05;;;;;;;3.30;0.85;;;21.40;55.30;;;;;;5060581;28;20517;-53
2022/08/06 06:18:46;;;;;;;2.85;0.82;;;21.80;54.70;;;;;;5046941;28;20066;-51
2022/08/06 06:21:20;;;;;;;1.38;0.63;;;21.90;52.00;;;;;;5047328;28;20051;-52
2022/08/06 06:23:55;;;;;;;3.13;0.63;;;21.50;54.40;;;;;;5057286;28;20486;-55
2022/08/06 06:26:44;;;;;;;2.47;0.60;;;22.00;54.30;;;;;;5025666;28;20032;-52
2022/08/06 06:29:37;;;;;;;7.22;0.93;;;22.10;53.60;;;;;;5047841;28;20032;-54
2022/08/06 06:32:28;;;;;;;3.95;0.70;;;22.40;53.70;;;;;;5057500;28;20072;-53
2022/08/06 06:35:02;;;;;;;12.82;1.38;;;22.50;52.80;;;;;;5052741;28;20422;-54
2022/08/06 06:37:44;;;;;;;10.02;0.80;;;22.50;53.20;;;;;;5039378;28;20031;-50
2022/08/06 06:40:43;;;;;;;1.48;0.65;;;22.60;52.80;;;;;;5031925;28;20422;-54
2022/08/06 06:43:25;;;;;;;6.68;0.88;;;22.70;52.60;;;;;;5020812;28;20033;-51
2022/08/06 06:45:59;;;;;;;4.07;0.85;;;22.60;52.70;;;;;;5040754;28;20033;-51
2022/08/06 06:48:35;;;;;;;4.30;0.50;;;22.70;52.70;;;;;;5040388;28;20482;-52
2022/08/06 06:51:05;;;;;;;;;;;22.80;52.00;;;;;;5004626;28;20272;-55
2022/08/06 06:53:34;;;;;;;7.18;0.88;;;22.50;52.70;;;;;;5019213;28;19917;-52
2022/08/06 06:55:59;;;;;;;2.53;0.63;;;22.60;54.40;;;;;;5042941;28;20417;-51
2022/08/06 06:58:34;;;;;;;2.90;1.15;;;22.70;54.40;;;;;;5061017;28;20516;-51
2022/08/06 07:00:59;;;;;;;2.78;0.50;;;22.30;54.00;;;;;;5031085;28;20109;-50
2022/08/06 07:03:25;;;;;;;3.95;0.85;;;22.40;53.50;;;;;;5006838;28;20144;-52
2022/08/06 07:05:50;;;;;;;2.55;0.60;;;22.50;54.00;;;;;;5040301;28;20093;-54
2022/08/06 07:08:18;;;;;;;1.25;0.60;;;22.60;53.30;;;;;;5029469;28;20025;-53
2022/08/06 07:10:43;;;;;;;3.58;0.60;;;22.60;52.70;;;;;;5030760;28;20482;-51
2022/08/06 07:13:09;;;;;;;1.35;0.80;;;22.70;53.10;;;;;;5026635;28;20036;-51
2022/08/06 07:15:35;;;;;;;1.92;0.60;;;22.30;50.70;;;;;;5057565;28;20048;-52
2022/08/06 07:18:01;;;;;;;2.25;0.70;;;22.10;52.90;;;;;;5062713;28;20502;-53
2022/08/06 07:20:28;;;;;;;3.95;0.70;;;22.20;53.60;;;;;;5030709;28;20477;-54
2022/08/06 07:22:55;;;;;;;1.40;0.80;;;22.40;53.40;;;;;;5023035;28;20555;-53
2022/08/06 07:25:21;;;;;;;1.85;0.50;;;22.50;53.10;;;;;;5043557;28;20029;-52
2022/08/06 07:27:49;;;;;;;2.00;0.60;;;22.50;52.90;;;;;;5062884;28;20316;-55
2022/08/06 07:30:16;;;;;;;2.42;0.65;;;22.40;52.50;;;;;;5055051;28;20542;-52
2022/08/06 07:32:43;;;;;;;0.90;0.43;;;22.50;52.60;;;;;;5043593;28;20059;-52
2022/08/06 07:35:09;;;;;;;2.08;0.55;;;22.50;53.10;;;;;;5035815;28;20036;-51
2022/08/06 07:37:35;;;;;;;1.90;0.40;;;22.50;52.70;;;;;;5062468;28;20064;-52
2022/08/06 07:40:00;;;;;;;3.35;0.70;;;22.20;51.50;;;;;;5058304;28;20482;-51
2022/08/06 07:42:26;;;;;;;2.17;0.55;;;22.30;52.50;;;;;;5026043;28;20021;-54
2022/08/06 07:44:53;;;;;;;7.18;0.80;;;22.30;51.90;;;;;;5010442;28;20041;-52
2022/08/06 07:47:21;;;;;;;4.97;0.82;;;22.30;54.20;;;;;;5010114;28;20043;-53
2022/08/06 07:49:49;;;;;;;3.33;0.90;;;22.50;53.90;;;;;;4995257;28;20044;-51
2022/08/06 07:52:15;;;;;;;1.40;0.50;;;22.30;53.20;;;;;;5044701;28;20024;-51
2022/08/06 07:54:41;;;;;;;3.22;0.50;;;22.40;53.70;;;;;;5062370;28;20243;-52
2022/08/06 07:57:06;;;;;;;3.35;0.70;;;22.40;53.20;;;;;;5012446;28;20045;-53
2022/08/06 07:59:32;;;;;;;5.95;0.85;;;22.50;53.30;;;;;;5040010;28;20340;-52
2022/08/06 08:01:58;;;;;;;3.97;0.63;;;22.40;52.60;;;;;;5039091;28;20029;-53
2022/08/06 08:07:08;;;;;;;1.38;0.80;;;22.30;52.40;;;;;;5047466;28;20290;-51
2022/08/06 08:09:33;;;;;;;0.70;0.38;;;22.40;52.90;;;;;;5044174;28;20025;-52
2022/08/06 08:11:59;;;;;;;2.88;0.70;;;22.30;51.30;;;;;;5079944;28;20512;-52
2022/08/06 08:14:24;;;;;;;3.95;0.90;;;22.10;51.50;;;;;;5065077;28;20220;-50
2022/08/06 08:16:50;;;;;;;1.65;0.60;;;22.30;51.70;;;;;;5048708;28;20380;-53
2022/08/06 08:19:22;;;;;;;2.88;0.40;;;22.40;51.70;;;;;;5061401;28;20094;-51
2022/08/06 08:21:48;;;;;;;3.60;0.63;;;22.20;48.90;;;;;;5077232;28;20120;-52
2022/08/06 08:24:14;;;;;;;5.13;0.70;;;22.10;51.40;;;;;;5083062;28;20027;-54
2022/08/06 08:26:39;;;;;;;11.00;1.15;;;22.30;51.00;;;;;;5069667;28;20029;-52
2022/08/06 08:29:05;;;;;;;6.05;0.80;;;22.30;50.40;;;;;;5062228;28;20028;-52
2022/08/06 08:31:30;;;;;;;4.20;0.80;;;22.10;50.70;;;;;;5073955;28;20016;-53
2022/08/06 08:33:56;;;;;;;3.38;0.50;;;21.80;50.10;;;;;;5064957;28;20031;-51
2022/08/06 08:36:23;;;;;;;0.77;0.43;;;21.80;51.30;;;;;;5074342;28;20511;-51
2022/08/06 08:38:48;;;;;;;11.48;0.68;;;21.70;51.50;;;;;;5062409;28;20066;-54
2022/08/06 08:41:19;;;;;;;3.40;0.60;;;21.90;50.70;;;;;;5069107;28;20044;-53
2022/08/06 08:43:48;;;;;;;3.22;0.40;;;21.80;50.30;;;;;;5044854;28;20569;-51
2022/08/06 08:46:14;;;;;;;1.85;0.55;;;22.00;50.20;;;;;;5035444;28;20029;-50
2022/08/06 08:48:39;;;;;;;4.18;0.77;;;22.10;48.40;;;;;;5021416;28;20049;-52
2022/08/06 08:51:05;;;;;;;1.85;0.50;;;22.20;50.10;;;;;;5029551;28;20048;-50
2022/08/06 08:53:36;;;;;;;1.73;0.40;;;21.90;50.40;;;;;;5044705;28;20115;-53
2022/08/06 08:56:02;;;;;;;1.83;0.50;;;21.70;48.60;;;;;;5058278;28;20510;-50
2022/08/06 08:58:27;;;;;;;3.03;0.60;;;21.80;50.50;;;;;;5024487;28;20037;-53
2022/08/06 09:00:53;;;;;;;1.73;0.30;;;22.10;50.10;;;;;;5044167;28;20033;-50
2022/08/06 09:03:18;;;;;;;3.45;0.50;;;22.20;50.00;;;;;;5060054;28;20031;-52
2022/08/06 09:05:44;;;;;;;2.22;0.43;;;22.10;49.90;;;;;;5059371;28;20446;-52
2022/08/06 09:08:09;;;;;;;3.88;0.50;;;22.00;49.90;;;;;;5028970;28;20029;-53
2022/08/06 09:10:35;;;;;;;7.38;0.70;;;22.00;49.80;;;;;;5023431;28;20115;-52
2022/08/06 09:13:00;;;;;;;2.72;0.88;;;22.20;49.70;;;;;;5059462;28;20025;-51
2022/08/06 09:15:26;;;;;;;3.97;1.20;;;22.20;49.50;;;;;;5062112;28;20071;-54
2022/08/06 09:17:51;;;;;;;1.75;0.60;;;22.30;49.40;;;;;;5047495;28;20035;-52
2022/08/06 09:20:17;;;;;;;4.43;0.70;;;22.30;49.40;;;;;;5007828;28;20033;-54
2022/08/06 09:22:50;;;;;;;5.68;1.05;;;22.30;49.30;;;;;;5056201;28;20029;-53
2022/08/06 09:25:35;;;;;;;6.40;1.00;;;22.20;49.40;;;;;;5062447;28;20060;-52
2022/08/06 09:28:00;;;;;;;5.90;0.68;;;22.20;49.10;;;;;;5046183;28;20025;-51
2022/08/06 09:30:26;;;;;;;2.65;0.55;;;21.90;48.60;;;;;;5023792;28;20021;-56
2022/08/06 09:32:52;;;;;;;2.78;0.63;;;22.10;48.70;;;;;;5056058;28;20434;-51
2022/08/06 09:35:21;;;;;;;3.17;0.60;;;22.10;48.80;;;;;;5060147;28;20256;-51
2022/08/06 09:37:47;;;;;;;1.73;0.35;;;22.20;48.80;;;;;;5049852;28;20025;-54
2022/08/06 09:40:19;;;;;;;4.10;0.70;;;22.30;49.10;;;;;;5041317;28;20546;-51
2022/08/06 09:42:49;;;;;;;3.20;0.47;;;22.30;49.00;;;;;;5052331;28;20341;-53
2022/08/06 09:45:15;;;;;;;4.75;0.55;;;22.30;49.30;;;;;;5026670;28;20393;-53
2022/08/06 09:47:41;;;;;;;0.77;0.60;;;22.20;48.00;;;;;;5050164;28;20037;-53
2022/08/06 09:50:07;;;;;;;5.97;0.73;;;22.10;48.20;;;;;;5021355;28;20039;-54
2022/08/06 09:52:33;;;;;;;2.22;0.50;;;22.20;49.10;;;;;;5029580;28;20112;-52
2022/08/06 09:54:58;;;;;;;3.83;1.00;;;22.30;49.40;;;;;;5058622;28;20339;-51
2022/08/06 09:57:25;;;;;;;1.55;0.50;;;22.20;47.90;;;;;;5051780;28;20308;-51
2022/08/06 09:59:50;;;;;;;1.17;0.35;;;22.20;48.80;;;;;;5005803;28;20124;-52
2022/08/06 10:02:18;;;;;;;2.47;0.75;;;22.30;48.80;;;;;;5010427;28;20186;-51
2022/08/06 10:04:43;;;;;;;2.05;0.50;;;22.10;47.70;;;;;;5060014;28;20418;-52
2022/08/06 10:07:09;;;;;;;2.08;0.40;;;22.00;47.90;;;;;;5057299;28;20036;-51
2022/08/06 10:09:37;;;;;;;2.70;0.40;;;21.60;47.60;;;;;;5004833;28;20025;-53
2022/08/06 10:12:16;;;;;;;1.15;0.50;;;21.50;48.00;;;;;;5024178;28;20036;-51
2022/08/06 10:14:41;;;;;;;1.35;0.50;;;21.50;47.70;;;;;;5043924;28;20115;-52
2022/08/06 10:17:18;;;;;;;1.00;0.30;;;21.80;47.60;;;;;;5059168;28;20150;-53
2022/08/06 10:19:45;;;;;;;1.00;0.40;;;21.90;45.30;;;;;;5039386;28;20040;-52
2022/08/06 10:22:13;;;;;;;2.80;0.50;;;21.90;47.60;;;;;;5040682;28;20056;-54
2022/08/06 10:24:51;;;;;;;2.75;0.57;;;22.10;47.50;;;;;;5057456;28;20136;-53
2022/08/06 10:27:20;;;;;;;3.28;0.50;;;22.10;47.20;;;;;;5059744;28;20105;-51
2022/08/06 10:29:54;;;;;;;2.33;0.50;;;22.10;47.30;;;;;;5030358;28;20140;-50
2022/08/06 10:32:29;;;;;;;2.20;0.50;;;22.10;47.10;;;;;;5023079;28;20029;-54
2022/08/06 10:34:54;;;;;;;1.50;0.40;;;22.20;47.40;;;;;;5059301;28;20193;-53
2022/08/06 10:37:20;;;;;;;1.13;0.30;;;22.20;47.10;;;;;;5058874;28;20032;-51
2022/08/06 10:39:52;;;;;;;0.90;0.40;;;22.20;47.30;;;;;;5029877;28;20116;-51
2022/08/06 10:42:17;;;;;;;0.85;0.30;;;22.10;47.40;;;;;;5023392;28;20534;-54
2022/08/06 10:44:44;;;;;;;1.20;0.32;;;22.10;45.80;;;;;;5056068;28;20033;-52
2022/08/06 10:47:10;;;;;;;2.42;0.70;;;21.90;46.30;;;;;;5046458;28;20029;-51
2022/08/06 10:49:35;;;;;;;3.45;0.68;;;22.10;47.40;;;;;;5025315;28;20022;-53
2022/08/06 10:52:01;;;;;;;1.15;0.40;;;22.10;47.00;;;;;;5023474;28;20408;-53
2022/08/06 10:54:27;;;;;;;0.85;0.40;;;22.10;46.80;;;;;;5054716;28;20283;-60
2022/08/06 10:56:54;;;;;;;0.85;0.30;;;22.10;45.10;;;;;;5062733;28;20025;-51
2022/08/06 10:59:20;;;;;;;1.45;0.47;;;22.10;46.80;;;;;;5044094;28;20509;-53
2022/08/06 11:02:03;;;;;;;1.40;0.32;;;22.10;46.60;;;;;;5042826;28;20064;-50
2022/08/06 11:04:49;;;;;;;0.90;0.50;;;22.10;46.50;;;;;;5060029;28;20117;-52
2022/08/06 11:08:05;;;;;;;4.10;0.55;;;22.00;46.70;;;;;;5062053;28;20253;-51
2022/08/06 11:10:58;;;;;;;0.73;0.35;;;22.00;46.40;;;;;;4921861;29;20043;-53
2022/08/06 11:13:31;;;;;;;2.20;0.52;;;21.90;46.40;;;;;;5004974;28;20029;-53
2022/08/06 11:15:56;;;;;;;0.52;0.28;;;21.90;44.50;;;;;;5045429;28;20032;-60
2022/08/06 11:18:22;;;;;;;1.02;0.30;;;21.90;45.80;;;;;;5048136;28;20032;-52
2022/08/06 11:20:54;;;;;;;2.22;0.55;;;21.70;45.90;;;;;;5064864;28;20032;-54
2022/08/06 11:23:23;;;;;;;1.45;0.40;;;21.70;46.00;;;;;;5080924;28;20493;-51
2022/08/06 11:25:51;;;;;;;3.33;0.60;;;21.80;45.60;;;;;;5062792;28;20037;-52
2022/08/06 11:28:18;;;;;;;1.65;0.40;;;21.80;46.10;;;;;;5045921;28;20269;-52
2022/08/06 11:30:48;;;;;;;4.20;1.00;;;21.90;46.10;;;;;;5064873;28;20028;-52
2022/08/06 11:33:32;;;;;;;1.63;0.50;;;22.00;46.10;;;;;;5049064;28;20310;-51
2022/08/06 11:35:58;;;;;;;1.38;0.30;;;22.00;46.20;;;;;;5042786;28;20037;-51
2022/08/06 11:38:42;;;;;;;2.03;0.65;;;22.10;46.30;;;;;;5042993;28;20021;-52
2022/08/06 11:41:09;;;;;;;3.10;1.10;;;22.00;46.30;;;;;;5082239;28;20101;-53
2022/08/06 11:43:40;;;;;;;1.13;0.60;;;22.00;45.10;;;;;;5080873;28;20036;-51
2022/08/06 11:46:34;;;;;;;3.25;1.08;;;22.00;45.90;;;;;;5062731;28;20051;-49
2022/08/06 11:49:10;;;;;;;2.58;0.63;;;21.90;46.20;;;;;;5032176;28;20356;-52
2022/08/06 11:51:40;;;;;;;1.40;0.68;;;22.00;45.40;;;;;;5062710;28;20032;-53
2022/08/06 11:54:09;;;;;;;0.50;0.30;;;21.90;45.80;;;;;;5057923;28;20094;-53
2022/08/06 11:56:34;;;;;;;3.53;0.75;;;22.00;45.80;;;;;;5042441;28;20037;-54
2022/08/06 11:59:15;;;;;;;3.70;0.60;;;21.90;46.00;;;;;;5044794;28;20036;-53
2022/08/06 12:01:49;;;;;;;1.55;0.52;;;22.00;46.00;;;;;;5061666;28;20059;-52
2022/08/06 12:04:39;;;;;;;1.55;0.60;;;22.00;45.80;;;;;;5058274;28;20077;-52
2022/08/06 12:07:28;;;;;;;1.88;0.40;;;22.10;45.80;;;;;;5042328;28;20063;-53
2022/08/06 12:10:05;;;;;;;1.33;0.50;;;22.10;45.60;;;;;;5050574;28;20033;-52
2022/08/06 12:12:38;;;;;;;1.55;0.40;;;22.10;45.80;;;;;;5081676;28;20074;-51
2022/08/06 12:15:12;;;;;;;3.17;0.77;;;22.10;45.10;;;;;;5045650;28;20033;-53
2022/08/06 12:17:57;;;;;;;2.70;0.47;;;21.80;43.90;;;;;;5040112;28;20041;-50
2022/08/06 12:20:32;;;;;;;1.45;0.22;;;21.90;45.20;;;;;;5036801;28;20501;-51
2022/08/06 12:23:01;;;;;;;1.38;0.50;;;21.90;45.40;;;;;;5061181;28;20190;-51
2022/08/06 12:25:34;;;;;;;0.80;0.30;;;22.00;45.10;;;;;;5003953;28;20026;-52
2022/08/06 12:27:59;;;;;;;1.20;0.40;;;22.10;45.20;;;;;;5020785;28;20106;-54
2022/08/06 12:30:25;;;;;;;1.42;0.55;;;22.10;44.80;;;;;;5040981;28;20071;-52
2022/08/06 12:32:59;;;;;;;1.95;0.60;;;22.00;44.30;;;;;;5062298;28;20029;-50
2022/08/06 12:35:24;;;;;;;0.43;0.30;;;21.90;44.40;;;;;;5047170;28;20545;-51
2022/08/06 12:37:50;;;;;;;1.17;0.32;;;21.90;45.00;;;;;;5023708;28;20036;-51
2022/08/06 12:40:28;;;;;;;1.02;0.30;;;22.00;45.00;;;;;;5048643;28;20021;-51
2022/08/06 12:42:54;;;;;;;0.68;0.30;;;21.90;44.50;;;;;;5061520;28;20029;-53
2022/08/06 12:45:24;;;;;;;0.93;0.30;;;21.90;45.20;;;;;;5052487;28;20308;-51
2022/08/06 12:48:03;;;;;;;0.55;0.30;;;22.00;44.50;;;;;;5041813;28;20037;-52
2022/08/06 12:50:29;;;;;;;1.85;0.40;;;22.10;44.60;;;;;;5051550;28;20036;-51
2022/08/06 12:53:03;;;;;;;4.10;0.55;;;22.10;44.30;;;;;;5080864;28;20472;-52
2022/08/06 12:55:34;;;;;;;0.85;0.40;;;22.10;44.50;;;;;;5053363;28;20091;-56
2022/08/06 12:57:59;;;;;;;2.28;0.40;;;22.00;44.40;;;;;;5042187;28;20033;-53
2022/08/06 13:00:25;;;;;;;4.10;0.47;;;21.80;42.20;;;;;;5029927;28;20037;-54